This is the latest recevied weather packets stored in our database for station/object ZS1DFR-1. If no packets are shown the sender has not sent any weather packets the latest 10 day(s).
| Time | Temp. | Humidity | Pressure | Rain* | Wind** | Luminosity | Snow |
|---|---|---|---|---|---|---|---|
| 1777719208 | 15° C | 96% | 1015.2 hPa | 0 mm | - | - | - |
| 1777718310 | 15° C | 96% | 1015.2 hPa | 0 mm | - | - | - |
| 1777718308 | 15° C | 96% | 1015.2 hPa | 0 mm | - | - | - |
| 1777717408 | 14.44° C | 95% | 1015.4 hPa | 0 mm | - | - | - |
| 1777716510 | 14.44° C | 95% | 1015.4 hPa | 0 mm | - | - | - |
| 1777716508 | 14.44° C | 95% | 1015.4 hPa | 0 mm | - | - | - |
| 1777715610 | 15° C | 86% | 1015.4 hPa | 0 mm | - | - | - |
| 1777715608 | 15° C | 86% | 1015.4 hPa | 0 mm | - | - | - |
| 1777714710 | 15° C | 86% | 1015.4 hPa | 0 mm | - | - | - |
| 1777714708 | 15° C | 86% | 1015.4 hPa | 0 mm | - | - | - |
| 1777713811 | 16.67° C | 74% | 1015.2 hPa | 0 mm | - | - | - |
| 1777713808 | 16.67° C | 74% | 1015.2 hPa | 0 mm | - | - | - |
| 1777712910 | 16.67° C | 74% | 1015.2 hPa | 0 mm | - | - | - |
| 1777712908 | 16.67° C | 74% | 1015.2 hPa | 0 mm | - | - | - |
| 1777712010 | 16.11° C | 73% | 1015.1 hPa | 0 mm | - | - | - |
| 1777712008 | 16.11° C | 73% | 1015.1 hPa | 0 mm | - | - | - |
| 1777711108 | 16.11° C | 73% | 1015.1 hPa | 0 mm | - | - | - |
| 1777710210 | 15.56° C | 75% | 1015.1 hPa | 0 mm | - | - | - |
| 1777710208 | 15.56° C | 75% | 1015.1 hPa | 0 mm | - | - | - |
| 1777709310 | 15.56° C | 75% | 1015.1 hPa | 0 mm | - | - | - |
| 1777709308 | 15.56° C | 75% | 1015.1 hPa | 0 mm | - | - | - |
| 1777708410 | 15.56° C | 76% | 1015.2 hPa | 0 mm | - | - | - |
| 1777708408 | 15.56° C | 76% | 1015.2 hPa | 0 mm | - | - | - |
| 1777707510 | 15.56° C | 76% | 1015.2 hPa | 0 mm | - | - | - |
| 1777707508 | 15.56° C | 76% | 1015.2 hPa | 0 mm | - | - | - |
* Rain latest hour (hover to see other rain measurements)
** Current wind speed in m/s (hover to see current wind gust speed)